createdAt,value
2019-04-06T00:01:17.986Z,4.40
2019-04-06T00:03:46.559Z,5.50
2019-04-06T00:06:15.470Z,5.50
2019-04-06T00:08:44.043Z,5.50
2019-04-06T00:11:12.620Z,5.40
2019-04-06T00:13:41.220Z,5.40
2019-04-06T00:16:09.780Z,5.40
2019-04-06T00:18:38.352Z,5.30
2019-04-06T00:21:07.002Z,5.30
2019-04-06T00:23:35.494Z,5.30
2019-04-06T00:26:04.154Z,5.30
2019-04-06T00:28:32.659Z,5.20
2019-04-06T00:31:18.017Z,5.20
2019-04-06T00:33:46.581Z,5.10
2019-04-06T00:36:15.147Z,5.10
2019-04-06T00:38:43.735Z,5.00
2019-04-06T00:41:12.306Z,5.00
2019-04-06T00:43:40.897Z,5.00
2019-04-06T00:46:09.815Z,5.10
2019-04-06T00:48:38.426Z,5.00
2019-04-06T00:51:06.984Z,4.90
2019-04-06T00:53:35.572Z,5.00
2019-04-06T00:56:04.470Z,4.90
2019-04-06T00:58:33.048Z,4.90
2019-04-06T01:01:01.611Z,4.90
2019-04-06T01:03:30.198Z,4.90
2019-04-06T01:05:58.696Z,4.80
2019-04-06T01:08:27.341Z,4.80
2019-04-06T01:10:55.922Z,4.70
2019-04-06T01:13:24.516Z,4.80
2019-04-06T01:15:53.081Z,4.70
2019-04-06T01:18:21.645Z,4.80
2019-04-06T01:20:50.172Z,4.80
2019-04-06T01:23:18.729Z,4.70
2019-04-06T01:25:47.253Z,4.70
2019-04-06T01:28:15.822Z,4.60
2019-04-06T01:30:44.413Z,4.60
2019-04-06T01:33:12.974Z,4.60
2019-04-06T01:35:41.490Z,4.50
2019-04-06T01:38:10.057Z,4.40
2019-04-06T01:40:38.681Z,4.50
2019-04-06T01:43:07.249Z,4.50
2019-04-06T01:45:35.737Z,4.50
2019-04-06T01:48:04.325Z,4.50
2019-04-06T01:50:32.889Z,4.50
2019-04-06T01:53:01.482Z,4.40
2019-04-06T01:55:29.969Z,4.40
2019-04-06T01:57:58.485Z,4.40
2019-04-06T02:00:26.972Z,4.30
2019-04-06T02:02:56.935Z,4.40
2019-04-06T02:05:25.494Z,4.30
2019-04-06T02:07:54.015Z,4.30
2019-04-06T02:10:22.666Z,4.30
2019-04-06T02:12:51.166Z,4.20
2019-04-06T02:15:19.829Z,4.20
2019-04-06T02:17:48.329Z,4.20
2019-04-06T02:20:16.921Z,4.20
2019-04-06T02:22:45.485Z,4.20
2019-04-06T02:25:14.427Z,4.20
2019-04-06T02:27:42.990Z,4.20
2019-04-06T02:30:25.185Z,4.20
2019-04-06T02:32:58.493Z,4.10
2019-04-06T02:35:44.792Z,4.00
2019-04-06T02:38:17.790Z,4.00
2019-04-06T02:40:48.022Z,4.10
2019-04-06T02:43:18.154Z,4.00
2019-04-06T02:45:47.158Z,4.10
2019-04-06T02:48:15.972Z,4.10
2019-04-06T02:50:44.596Z,4.10
2019-04-06T02:53:13.397Z,4.10
2019-04-06T02:55:42.011Z,4.00
2019-04-06T02:58:10.613Z,4.00
2019-04-06T03:00:39.331Z,4.00
2019-04-06T03:03:08.009Z,4.00
2019-04-06T03:05:36.581Z,4.00
2019-04-06T03:08:05.180Z,4.00
2019-04-06T03:10:33.810Z,3.90
2019-04-06T03:13:02.532Z,3.90
2019-04-06T03:15:31.156Z,3.90
2019-04-06T03:17:59.758Z,3.90
2019-04-06T03:20:28.726Z,3.90
2019-04-06T03:22:57.520Z,3.90
2019-04-06T03:25:26.231Z,3.90
2019-04-06T03:27:54.798Z,3.70
2019-04-06T03:30:23.425Z,3.80
2019-04-06T03:32:51.994Z,3.70
2019-04-06T03:35:20.570Z,3.70
2019-04-06T03:37:49.204Z,3.70
2019-04-06T03:40:17.839Z,3.60
2019-04-06T03:42:46.365Z,3.60
2019-04-06T03:45:14.984Z,3.60
2019-04-06T03:47:43.625Z,3.60
2019-04-06T03:50:12.324Z,3.60
2019-04-06T03:52:40.967Z,3.60
2019-04-06T03:55:09.685Z,3.60
2019-04-06T03:57:38.278Z,3.60
2019-04-06T04:00:07.990Z,3.60
2019-04-06T04:02:36.585Z,3.50
2019-04-06T04:05:06.390Z,3.50
2019-04-06T04:07:34.986Z,3.60
2019-04-06T04:10:05.395Z,3.60
2019-04-06T04:12:33.999Z,3.60
2019-04-06T04:15:02.879Z,3.60
2019-04-06T04:17:31.574Z,3.60
2019-04-06T04:20:00.147Z,3.60
2019-04-06T04:22:29.275Z,3.60
2019-04-06T04:24:57.866Z,3.60
2019-04-06T04:27:29.295Z,3.50
2019-04-06T04:29:56.764Z,3.50
2019-04-06T04:32:25.362Z,3.50
2019-04-06T04:34:53.916Z,3.50
2019-04-06T04:37:22.411Z,3.50
2019-04-06T04:39:51.270Z,3.40
2019-04-06T04:42:20.063Z,3.40
2019-04-06T04:44:48.684Z,3.50
2019-04-06T04:47:17.255Z,3.50
2019-04-06T04:49:45.838Z,3.50
2019-04-06T04:52:14.435Z,3.50
2019-04-06T04:54:42.997Z,3.50
2019-04-06T04:57:11.607Z,3.50
2019-04-06T04:59:40.090Z,3.50
2019-04-06T05:02:08.691Z,3.60
2019-04-06T05:04:37.258Z,3.60
2019-04-06T05:07:05.854Z,3.70
2019-04-06T05:09:34.420Z,4.10
2019-04-06T05:12:02.946Z,4.80
2019-04-06T05:14:54.183Z,5.30
2019-04-06T05:17:22.787Z,6.00
2019-04-06T05:19:51.362Z,6.70
2019-04-06T05:22:19.909Z,7.30
2019-04-06T05:24:48.646Z,8.00
2019-04-06T05:27:17.237Z,9.10
2019-04-06T05:29:45.838Z,9.70
2019-04-06T05:32:14.341Z,10.30
2019-04-06T05:34:42.950Z,9.80
2019-04-06T05:37:11.542Z,9.50
2019-04-06T05:39:40.154Z,10.10
2019-04-06T05:42:08.737Z,11.60
2019-04-06T05:44:37.354Z,13.20
2019-04-06T05:47:05.956Z,14.50
2019-04-06T05:49:34.549Z,15.40
2019-04-06T05:52:03.137Z,16.40
2019-04-06T05:54:31.743Z,17.60
2019-04-06T05:57:00.583Z,18.20
2019-04-06T05:59:29.229Z,18.50
2019-04-06T06:01:57.733Z,19.40
2019-04-06T06:04:26.310Z,20.10
2019-04-06T06:06:54.910Z,19.40
2019-04-06T06:09:23.415Z,18.70
2019-04-06T06:11:52.058Z,18.90
2019-04-06T06:14:20.812Z,18.10
2019-04-06T06:16:49.438Z,18.80
2019-04-06T06:19:17.942Z,20.10
2019-04-06T06:21:46.483Z,21.20
2019-04-06T06:24:15.075Z,22.40
2019-04-06T06:26:43.894Z,23.50
2019-04-06T06:29:12.549Z,24.10
2019-04-06T06:31:41.146Z,22.60
2019-04-06T06:34:09.758Z,21.00
2019-04-06T06:36:38.339Z,23.40
2019-04-06T06:39:08.304Z,24.60
2019-04-06T06:41:36.885Z,25.10
2019-04-06T06:44:05.657Z,23.30
2019-04-06T06:46:34.149Z,22.40
2019-04-06T06:49:03.215Z,21.70
2019-04-06T06:51:32.354Z,21.60
2019-04-06T06:54:00.855Z,21.70
2019-04-06T06:56:29.381Z,21.60
2019-04-06T06:58:57.969Z,21.90
2019-04-06T07:01:26.582Z,22.70
2019-04-06T07:03:55.091Z,23.50
2019-04-06T07:06:23.778Z,23.80
2019-04-06T07:08:52.430Z,24.40
2019-04-06T07:11:20.925Z,25.60
2019-04-06T07:13:49.565Z,26.30
2019-04-06T07:16:18.189Z,27.00
2019-04-06T07:18:46.817Z,28.20
2019-04-06T07:21:16.663Z,29.60
2019-04-06T07:23:45.669Z,30.10
2019-04-06T07:26:14.320Z,28.50
2019-04-06T07:28:42.954Z,28.30
2019-04-06T07:31:11.638Z,29.80
2019-04-06T07:33:40.367Z,30.90
2019-04-06T07:36:09.171Z,30.00
2019-04-06T07:38:38.347Z,30.40
2019-04-06T07:41:07.509Z,30.20
2019-04-06T07:43:36.269Z,30.00
2019-04-06T07:46:05.095Z,28.50
2019-04-06T07:48:33.653Z,26.80
2019-04-06T07:51:02.232Z,24.40
2019-04-06T07:53:30.870Z,22.40
2019-04-06T07:55:59.477Z,21.40
2019-04-06T07:58:28.298Z,22.30
2019-04-06T08:00:56.911Z,20.00
2019-04-06T08:03:25.515Z,17.90
2019-04-06T08:05:54.326Z,17.30
2019-04-06T08:08:23.021Z,16.50
2019-04-06T08:10:51.528Z,16.30
2019-04-06T08:13:20.057Z,16.00
2019-04-06T08:15:48.703Z,16.00
2019-04-06T08:18:17.242Z,15.90
2019-04-06T08:20:46.046Z,15.40
2019-04-06T08:23:14.738Z,15.00
2019-04-06T08:25:43.301Z,14.30
2019-04-06T08:28:11.833Z,13.80
2019-04-06T08:30:46.323Z,13.60
2019-04-06T08:33:10.683Z,13.20
2019-04-06T08:35:39.273Z,13.10
2019-04-06T08:38:09.367Z,13.10
2019-04-06T08:40:37.930Z,13.10
2019-04-06T08:43:06.630Z,13.50
2019-04-06T08:45:35.228Z,13.10
2019-04-06T08:48:03.736Z,13.10
2019-04-06T08:50:32.339Z,13.60
2019-04-06T08:53:00.925Z,13.40
2019-04-06T08:55:29.525Z,13.30
2019-04-06T08:57:58.402Z,13.50
2019-04-06T09:00:26.932Z,13.00
2019-04-06T09:02:55.509Z,12.90
2019-04-06T09:05:24.130Z,12.80
2019-04-06T09:07:52.754Z,13.20
2019-04-06T09:10:21.417Z,13.10
2019-04-06T09:12:50.049Z,12.90
2019-04-06T09:15:18.838Z,12.90
2019-04-06T09:17:47.351Z,13.10
2019-04-06T09:20:16.097Z,13.20
2019-04-06T09:22:44.730Z,13.40
2019-04-06T09:25:13.555Z,13.70
2019-04-06T09:27:42.124Z,13.50
2019-04-06T09:30:10.879Z,13.20
2019-04-06T09:32:39.482Z,13.50
2019-04-06T09:35:08.249Z,13.50
2019-04-06T09:37:36.894Z,13.60
2019-04-06T09:40:06.743Z,13.40
2019-04-06T09:42:35.314Z,13.50
2019-04-06T09:45:13.699Z,13.30
2019-04-06T09:47:46.677Z,13.30
2019-04-06T09:50:19.920Z,13.10
2019-04-06T09:53:08.737Z,12.90
2019-04-06T09:55:41.891Z,12.90
2019-04-06T09:58:20.786Z,13.30
2019-04-06T10:01:07.286Z,13.50
2019-04-06T10:03:55.854Z,13.70
2019-04-06T10:06:26.107Z,13.70
2019-04-06T10:08:56.601Z,13.90
2019-04-06T10:11:29.614Z,14.00
2019-04-06T10:14:05.618Z,14.50
2019-04-06T10:16:44.675Z,14.50
2019-04-06T10:19:20.605Z,14.30
2019-04-06T10:21:53.281Z,14.50
2019-04-06T10:24:29.538Z,14.20
2019-04-06T10:27:11.869Z,14.30
2019-04-06T10:29:48.947Z,14.50
2019-04-06T10:32:35.202Z,14.70
2019-04-06T10:35:14.430Z,14.60
2019-04-06T10:37:44.690Z,14.40
2019-04-06T10:40:17.845Z,14.60
2019-04-06T10:42:53.888Z,15.00
2019-04-06T10:45:24.087Z,15.00
2019-04-06T10:48:11.130Z,14.60
2019-04-06T10:50:47.139Z,14.50
2019-04-06T10:53:17.429Z,14.50
2019-04-06T10:55:47.578Z,14.20
2019-04-06T10:58:26.845Z,14.10
2019-04-06T11:00:56.990Z,13.80
2019-04-06T11:03:33.050Z,13.70
2019-04-06T11:06:03.307Z,13.80
2019-04-06T11:08:45.560Z,14.00
2019-04-06T11:11:19.394Z,14.00
2019-04-06T11:13:53.620Z,13.90
2019-04-06T11:16:29.854Z,14.00
2019-04-06T11:19:00.033Z,14.00
2019-04-06T11:21:38.817Z,14.40
2019-04-06T11:24:27.143Z,14.40
2019-04-06T11:27:15.487Z,14.00
2019-04-06T11:29:57.630Z,14.00
2019-04-06T11:32:30.721Z,13.90
2019-04-06T11:35:01.270Z,13.60
2019-04-06T11:37:51.134Z,13.30
2019-04-06T11:40:27.538Z,13.30
2019-04-06T11:43:00.301Z,13.30
2019-04-06T11:45:30.874Z,13.30
2019-04-06T11:48:03.868Z,13.50
2019-04-06T11:50:34.135Z,13.40
2019-04-06T11:53:10.098Z,13.20
2019-04-06T11:55:55.810Z,13.30
2019-04-06T11:58:28.906Z,13.20
2019-04-06T12:01:01.862Z,13.30
2019-04-06T12:03:46.895Z,13.30
2019-04-06T12:06:17.369Z,13.40
2019-04-06T12:09:04.161Z,13.60
2019-04-06T12:11:52.883Z,13.80
2019-04-06T12:14:23.370Z,13.90
2019-04-06T12:16:53.798Z,14.20
2019-04-06T12:19:40.314Z,14.20
2019-04-06T12:22:27.033Z,14.40
2019-04-06T12:24:57.318Z,14.30
2019-04-06T12:27:30.527Z,14.20
2019-04-06T12:30:10.014Z,14.10
2019-04-06T12:32:56.468Z,14.10
2019-04-06T12:35:43.140Z,14.10
2019-04-06T12:38:13.347Z,14.00
2019-04-06T12:40:43.571Z,14.00
2019-04-06T12:43:16.529Z,14.20
2019-04-06T12:45:47.162Z,14.40
2019-04-06T12:48:33.850Z,14.50
2019-04-06T12:51:13.112Z,14.50
2019-04-06T12:53:52.295Z,14.70
2019-04-06T12:56:28.433Z,14.70
2019-04-06T12:59:15.150Z,14.90
2019-04-06T13:01:54.558Z,14.70
2019-04-06T13:04:37.044Z,14.70
2019-04-06T13:07:25.284Z,14.90
2019-04-06T13:10:10.374Z,14.90
2019-04-06T13:12:40.590Z,15.10
2019-04-06T13:15:17.126Z,15.20
2019-04-06T13:18:05.942Z,15.10
2019-04-06T13:20:42.357Z,15.10
2019-04-06T13:23:28.535Z,15.20
2019-04-06T13:26:15.247Z,15.40
2019-04-06T13:28:45.987Z,15.20
2019-04-06T13:31:16.568Z,15.10
2019-04-06T13:33:55.610Z,15.00
2019-04-06T13:36:26.242Z,15.00
2019-04-06T13:38:56.478Z,15.20
2019-04-06T13:41:26.903Z,15.00
2019-04-06T13:44:03.160Z,15.20
2019-04-06T13:46:36.408Z,15.30
2019-04-06T13:49:09.086Z,14.80
2019-04-06T13:51:55.618Z,14.70
2019-04-06T13:54:29.000Z,14.80
2019-04-06T13:57:05.051Z,14.80
2019-04-06T13:59:35.390Z,14.60
2019-04-06T14:02:05.977Z,14.80
2019-04-06T14:04:39.349Z,14.80
2019-04-06T14:07:26.202Z,15.10
2019-04-06T14:09:59.082Z,15.20
2019-04-06T14:12:35.194Z,15.30
2019-04-06T14:15:17.626Z,15.50
2019-04-06T14:18:04.302Z,15.70
2019-04-06T14:20:34.715Z,16.00
2019-04-06T14:23:17.063Z,15.80
2019-04-06T14:25:53.770Z,15.90
2019-04-06T14:28:24.236Z,16.10
2019-04-06T14:30:54.490Z,16.00
2019-04-06T14:33:41.053Z,16.10
2019-04-06T14:36:11.267Z,16.00
2019-04-06T14:38:50.796Z,16.00
2019-04-06T14:41:24.447Z,15.90
2019-04-06T14:43:54.851Z,16.30
2019-04-06T14:46:28.068Z,16.10
2019-04-06T14:49:09.576Z,16.00
2019-04-06T14:51:39.286Z,15.70
2019-04-06T14:54:09.466Z,15.50
2019-04-06T14:56:42.985Z,15.30
2019-04-06T14:59:13.508Z,15.30
2019-04-06T15:01:57.147Z,15.40
2019-04-06T15:04:24.662Z,15.30
2019-04-06T15:07:08.565Z,15.20
2019-04-06T15:09:30.039Z,15.10
2019-04-06T15:12:18.302Z,15.20
2019-04-06T15:14:48.555Z,15.20
2019-04-06T15:17:19.070Z,15.10
2019-04-06T15:20:07.165Z,14.90
2019-04-06T15:22:52.205Z,15.00
2019-04-06T15:25:22.432Z,14.90
2019-04-06T15:28:07.902Z,14.90
2019-04-06T15:30:54.709Z,14.70
2019-04-06T15:33:27.737Z,14.60
2019-04-06T15:36:03.943Z,14.50
2019-04-06T15:38:50.749Z,14.60
2019-04-06T15:41:37.178Z,14.60
2019-04-06T15:44:07.393Z,14.60
2019-04-06T15:46:37.553Z,14.60
2019-04-06T15:49:24.423Z,14.50
2019-04-06T15:51:54.761Z,14.50
2019-04-06T15:54:30.353Z,14.50
2019-04-06T15:57:03.557Z,14.40
2019-04-06T15:59:39.655Z,14.40
2019-04-06T16:02:10.108Z,14.40
2019-04-06T16:04:43.603Z,14.40
2019-04-06T16:07:33.394Z,14.40
2019-04-06T16:10:04.917Z,14.50
2019-04-06T16:12:51.687Z,14.50
2019-04-06T16:15:38.733Z,14.60
2019-04-06T16:18:25.094Z,14.60
2019-04-06T16:21:12.121Z,14.70
2019-04-06T16:23:44.064Z,14.70
2019-04-06T16:26:17.254Z,14.70
2019-04-06T16:28:50.393Z,14.70
2019-04-06T16:31:37.035Z,14.90
2019-04-06T16:34:19.665Z,15.00
2019-04-06T16:36:49.948Z,15.00
2019-04-06T16:39:29.038Z,15.10
2019-04-06T16:42:15.468Z,15.10
2019-04-06T16:44:45.711Z,15.00
2019-04-06T16:47:32.212Z,15.00
2019-04-06T16:50:05.234Z,14.90
2019-04-06T16:52:50.203Z,14.90
2019-04-06T16:55:20.446Z,14.90
2019-04-06T16:58:02.735Z,14.80
2019-04-06T17:00:49.962Z,14.70
2019-04-06T17:03:20.290Z,14.70
2019-04-06T17:05:52.971Z,14.60
2019-04-06T17:08:32.437Z,14.60
2019-04-06T17:11:20.790Z,14.50
2019-04-06T17:13:53.669Z,14.50
2019-04-06T17:16:32.843Z,14.50
2019-04-06T17:19:05.868Z,14.40
2019-04-06T17:21:50.933Z,14.40
2019-04-06T17:24:21.214Z,14.30
2019-04-06T17:26:54.041Z,14.30
2019-04-06T17:29:32.862Z,14.30
2019-04-06T17:32:11.542Z,14.20
2019-04-06T17:34:54.335Z,14.20
2019-04-06T17:37:22.564Z,14.10
2019-04-06T17:40:11.013Z,14.10
2019-04-06T17:42:41.673Z,14.00
2019-04-06T17:45:16.032Z,13.90
2019-04-06T17:48:01.619Z,13.90
2019-04-06T17:50:48.783Z,13.80
2019-04-06T17:53:22.061Z,13.80
2019-04-06T17:55:52.292Z,13.70
2019-04-06T17:58:34.804Z,13.60
2019-04-06T18:01:14.141Z,13.60
2019-04-06T18:03:46.874Z,13.50
2019-04-06T18:06:29.094Z,13.40
2019-04-06T18:09:08.447Z,13.30
2019-04-06T18:11:38.809Z,13.20
2019-04-06T18:14:07.726Z,13.10
2019-04-06T18:16:36.432Z,13.10
2019-04-06T18:19:05.802Z,13.00
2019-04-06T18:21:34.573Z,13.00
2019-04-06T18:24:04.266Z,12.90
2019-04-06T18:26:33.030Z,12.90
2019-04-06T18:29:01.772Z,12.80
2019-04-06T18:31:41.331Z,12.70
2019-04-06T18:34:10.252Z,12.70
2019-04-06T18:36:56.967Z,12.60
2019-04-06T18:39:26.706Z,12.60
2019-04-06T18:41:55.301Z,12.50
2019-04-06T18:44:24.073Z,12.50
2019-04-06T18:46:52.926Z,12.50
2019-04-06T18:49:21.473Z,12.40
2019-04-06T18:51:50.083Z,12.30
2019-04-06T18:54:18.643Z,12.30
2019-04-06T18:56:47.161Z,12.20
2019-04-06T18:59:15.760Z,12.20
2019-04-06T19:01:44.879Z,12.10
2019-04-06T19:04:13.478Z,12.10
2019-04-06T19:06:42.126Z,12.00
2019-04-06T19:09:20.619Z,12.00
2019-04-06T19:11:52.876Z,11.90
2019-04-06T19:14:11.348Z,11.90
2019-04-06T19:16:39.973Z,11.80
2019-04-06T19:19:09.026Z,11.80
2019-04-06T19:21:37.761Z,11.70
2019-04-06T19:24:06.446Z,11.70
2019-04-06T19:26:37.305Z,11.60
2019-04-06T19:29:05.278Z,11.60
2019-04-06T19:31:33.853Z,11.50
2019-04-06T19:34:02.424Z,11.40
2019-04-06T19:36:31.073Z,11.40
2019-04-06T19:38:59.603Z,11.30
2019-04-06T19:41:28.209Z,11.30
2019-04-06T19:43:56.709Z,11.20
2019-04-06T19:46:25.229Z,11.20
2019-04-06T19:48:53.744Z,11.10
2019-04-06T19:51:22.641Z,11.00
2019-04-06T19:53:52.889Z,11.00
2019-04-06T19:56:21.411Z,11.00
2019-04-06T19:58:49.986Z,10.90
2019-04-06T20:01:19.083Z,10.80
2019-04-06T20:03:47.824Z,10.80
2019-04-06T20:06:16.636Z,10.80
2019-04-06T20:08:45.330Z,10.70
2019-04-06T20:11:14.340Z,10.70
2019-04-06T20:13:42.861Z,10.60
2019-04-06T20:16:12.076Z,10.60
2019-04-06T20:18:41.230Z,10.50
2019-04-06T20:21:10.670Z,10.60
2019-04-06T20:23:39.403Z,10.60
2019-04-06T20:26:08.002Z,10.50
2019-04-06T20:28:36.633Z,10.50
2019-04-06T20:31:05.234Z,10.40
2019-04-06T20:33:35.039Z,10.40
2019-04-06T20:36:04.689Z,10.40
2019-04-06T20:38:33.290Z,10.40
2019-04-06T20:41:01.959Z,10.30
2019-04-06T20:43:30.529Z,10.30
2019-04-06T20:45:59.208Z,10.30
2019-04-06T20:48:28.226Z,10.30
2019-04-06T20:50:56.944Z,10.30
2019-04-06T20:53:25.514Z,10.30
2019-04-06T20:55:54.228Z,10.30
2019-04-06T20:58:22.811Z,10.30
2019-04-06T21:00:51.589Z,10.20
2019-04-06T21:03:20.205Z,10.10
2019-04-06T21:05:48.862Z,10.10
2019-04-06T21:08:18.083Z,10.20
2019-04-06T21:10:47.245Z,10.20
2019-04-06T21:13:15.845Z,10.20
2019-04-06T21:15:45.035Z,10.30
2019-04-06T21:18:13.712Z,10.30
2019-04-06T21:20:42.265Z,10.20
2019-04-06T21:23:10.877Z,10.10
2019-04-06T21:25:40.818Z,10.00
2019-04-06T21:28:10.006Z,10.00
2019-04-06T21:30:39.061Z,9.90
2019-04-06T21:33:07.998Z,10.00
2019-04-06T21:35:36.861Z,10.00
2019-04-06T21:38:06.599Z,9.90
2019-04-06T21:40:35.736Z,9.90
2019-04-06T21:43:04.454Z,9.70
2019-04-06T21:45:33.137Z,9.70
2019-04-06T21:48:01.811Z,9.70
2019-04-06T21:50:33.132Z,9.80
2019-04-06T21:53:02.517Z,9.80
2019-04-06T21:55:32.275Z,9.80
2019-04-06T21:58:01.064Z,9.70
2019-04-06T22:00:38.483Z,9.50
2019-04-06T22:03:07.181Z,9.70
2019-04-06T22:05:36.326Z,9.60
2019-04-06T22:08:04.980Z,9.60
2019-04-06T22:10:34.180Z,9.50
2019-04-06T22:13:02.875Z,9.50
2019-04-06T22:15:31.470Z,9.50
2019-04-06T22:18:00.043Z,9.50
2019-04-06T22:20:28.633Z,9.40
2019-04-06T22:22:57.349Z,9.40
2019-04-06T22:25:26.005Z,9.40
2019-04-06T22:27:55.049Z,9.50
2019-04-06T22:30:23.673Z,9.50
2019-04-06T22:32:52.465Z,9.60
2019-04-06T22:35:21.441Z,9.60
2019-04-06T22:37:50.012Z,9.60
2019-04-06T22:40:18.727Z,9.60
2019-04-06T22:42:47.775Z,9.60
2019-04-06T22:45:18.574Z,9.60
2019-04-06T22:47:47.293Z,9.60
2019-04-06T22:50:16.411Z,9.60
2019-04-06T22:52:45.224Z,9.60
2019-04-06T22:55:13.988Z,9.50
2019-04-06T22:57:42.682Z,9.50
2019-04-06T23:00:16.766Z,9.50
2019-04-06T23:03:02.565Z,9.50
2019-04-06T23:05:32.858Z,9.50
2019-04-06T23:08:01.555Z,9.50
2019-04-06T23:10:30.487Z,9.40
2019-04-06T23:12:59.597Z,9.30
2019-04-06T23:15:28.898Z,9.30
2019-04-06T23:17:58.060Z,9.30
2019-04-06T23:20:26.779Z,9.30
2019-04-06T23:22:55.449Z,9.30
2019-04-06T23:25:24.408Z,9.30
2019-04-06T23:27:53.356Z,9.20
2019-04-06T23:30:22.640Z,9.20
2019-04-06T23:32:51.194Z,9.20
2019-04-06T23:35:19.795Z,9.20
2019-04-06T23:37:48.368Z,9.10
2019-04-06T23:40:17.711Z,9.10
2019-04-06T23:42:46.782Z,9.00
2019-04-06T23:45:15.415Z,9.10
2019-04-06T23:47:44.443Z,9.00
2019-04-06T23:50:13.322Z,8.90
2019-04-06T23:52:42.336Z,8.90
2019-04-06T23:55:11.065Z,8.90
2019-04-06T23:57:40.087Z,8.90
